sensor_id;sensor_type;location;lat;lon;timestamp;P1;durP1;ratioP1;P2;durP2;ratioP2
74383;SDS011;62824;52.994;-3.936;2023-04-24T00:01:25;14.30;;;6.82;;
74383;SDS011;62824;52.994;-3.936;2023-04-24T00:03:51;10.63;;;6.60;;
74383;SDS011;62824;52.994;-3.936;2023-04-24T00:06:17;12.60;;;7.88;;
74383;SDS011;62824;52.994;-3.936;2023-04-24T00:08:43;9.32;;;6.07;;
74383;SDS011;62824;52.994;-3.936;2023-04-24T00:11:09;9.75;;;5.95;;
74383;SDS011;62824;52.994;-3.936;2023-04-24T00:13:35;9.60;;;5.68;;
74383;SDS011;62824;52.994;-3.936;2023-04-24T00:16:00;10.07;;;5.80;;
74383;SDS011;62824;52.994;-3.936;2023-04-24T00:18:26;16.15;;;7.60;;
74383;SDS011;62824;52.994;-3.936;2023-04-24T00:20:52;10.70;;;6.55;;
74383;SDS011;62824;52.994;-3.936;2023-04-24T00:23:18;13.82;;;6.97;;
74383;SDS011;62824;52.994;-3.936;2023-04-24T00:25:44;11.80;;;7.30;;
74383;SDS011;62824;52.994;-3.936;2023-04-24T00:28:09;7.75;;;4.88;;
74383;SDS011;62824;52.994;-3.936;2023-04-24T00:30:35;9.52;;;5.25;;
74383;SDS011;62824;52.994;-3.936;2023-04-24T00:33:01;11.73;;;6.03;;
74383;SDS011;62824;52.994;-3.936;2023-04-24T00:35:27;11.02;;;7.88;;
74383;SDS011;62824;52.994;-3.936;2023-04-24T00:37:52;22.63;;;12.20;;
74383;SDS011;62824;52.994;-3.936;2023-04-24T00:40:18;15.25;;;9.60;;
74383;SDS011;62824;52.994;-3.936;2023-04-24T00:42:44;10.05;;;7.13;;
74383;SDS011;62824;52.994;-3.936;2023-04-24T00:45:10;10.98;;;6.22;;
74383;SDS011;62824;52.994;-3.936;2023-04-24T00:47:36;11.98;;;6.20;;
74383;SDS011;62824;52.994;-3.936;2023-04-24T00:50:04;7.30;;;4.97;;
74383;SDS011;62824;52.994;-3.936;2023-04-24T00:52:31;9.80;;;5.57;;
74383;SDS011;62824;52.994;-3.936;2023-04-24T00:54:57;9.75;;;5.57;;
74383;SDS011;62824;52.994;-3.936;2023-04-24T00:57:23;12.05;;;6.22;;
74383;SDS011;62824;52.994;-3.936;2023-04-24T00:59:50;8.02;;;4.95;;
74383;SDS011;62824;52.994;-3.936;2023-04-24T01:02:18;8.80;;;5.05;;
74383;SDS011;62824;52.994;-3.936;2023-04-24T01:04:45;11.35;;;6.00;;
74383;SDS011;62824;52.994;-3.936;2023-04-24T01:07:11;9.63;;;5.50;;
74383;SDS011;62824;52.994;-3.936;2023-04-24T01:09:37;10.10;;;4.97;;
74383;SDS011;62824;52.994;-3.936;2023-04-24T01:12:08;8.70;;;5.10;;
74383;SDS011;62824;52.994;-3.936;2023-04-24T01:14:34;5.80;;;4.53;;
74383;SDS011;62824;52.994;-3.936;2023-04-24T01:17:00;6.38;;;3.88;;
74383;SDS011;62824;52.994;-3.936;2023-04-24T01:19:26;8.90;;;4.75;;
74383;SDS011;62824;52.994;-3.936;2023-04-24T01:21:53;8.82;;;4.60;;
74383;SDS011;62824;52.994;-3.936;2023-04-24T01:24:21;6.78;;;4.18;;
74383;SDS011;62824;52.994;-3.936;2023-04-24T01:26:47;7.90;;;4.10;;
74383;SDS011;62824;52.994;-3.936;2023-04-24T01:29:13;8.20;;;4.43;;
74383;SDS011;62824;52.994;-3.936;2023-04-24T01:31:39;8.23;;;4.13;;
74383;SDS011;62824;52.994;-3.936;2023-04-24T01:34:05;6.10;;;3.72;;
74383;SDS011;62824;52.994;-3.936;2023-04-24T01:36:31;5.53;;;3.67;;
74383;SDS011;62824;52.994;-3.936;2023-04-24T01:38:58;7.95;;;3.85;;
74383;SDS011;62824;52.994;-3.936;2023-04-24T01:41:24;5.85;;;4.30;;
74383;SDS011;62824;52.994;-3.936;2023-04-24T01:43:50;7.50;;;3.70;;
74383;SDS011;62824;52.994;-3.936;2023-04-24T01:46:16;9.10;;;4.05;;
74383;SDS011;62824;52.994;-3.936;2023-04-24T01:48:42;7.00;;;3.78;;
74383;SDS011;62824;52.994;-3.936;2023-04-24T01:51:07;6.20;;;3.42;;
74383;SDS011;62824;52.994;-3.936;2023-04-24T01:53:33;7.75;;;3.63;;
74383;SDS011;62824;52.994;-3.936;2023-04-24T01:55:59;8.15;;;3.90;;
74383;SDS011;62824;52.994;-3.936;2023-04-24T01:58:26;6.72;;;3.80;;
74383;SDS011;62824;52.994;-3.936;2023-04-24T02:00:52;8.38;;;4.10;;
74383;SDS011;62824;52.994;-3.936;2023-04-24T02:03:18;7.15;;;3.95;;
74383;SDS011;62824;52.994;-3.936;2023-04-24T02:05:44;6.00;;;4.07;;
74383;SDS011;62824;52.994;-3.936;2023-04-24T02:08:10;5.85;;;4.22;;
74383;SDS011;62824;52.994;-3.936;2023-04-24T02:10:36;6.85;;;4.22;;
74383;SDS011;62824;52.994;-3.936;2023-04-24T02:13:02;6.63;;;4.47;;
74383;SDS011;62824;52.994;-3.936;2023-04-24T02:15:27;7.88;;;3.90;;
74383;SDS011;62824;52.994;-3.936;2023-04-24T02:17:53;8.77;;;4.57;;
74383;SDS011;62824;52.994;-3.936;2023-04-24T02:20:19;9.65;;;4.22;;
74383;SDS011;62824;52.994;-3.936;2023-04-24T02:22:44;8.43;;;4.25;;
74383;SDS011;62824;52.994;-3.936;2023-04-24T02:25:10;5.95;;;3.90;;
74383;SDS011;62824;52.994;-3.936;2023-04-24T02:27:36;8.38;;;4.18;;
74383;SDS011;62824;52.994;-3.936;2023-04-24T02:30:02;8.02;;;4.22;;
74383;SDS011;62824;52.994;-3.936;2023-04-24T02:32:28;5.00;;;3.92;;
74383;SDS011;62824;52.994;-3.936;2023-04-24T02:34:53;11.63;;;4.38;;
74383;SDS011;62824;52.994;-3.936;2023-04-24T02:37:19;6.28;;;3.85;;
74383;SDS011;62824;52.994;-3.936;2023-04-24T02:39:45;7.90;;;4.68;;
74383;SDS011;62824;52.994;-3.936;2023-04-24T02:42:11;8.35;;;4.30;;
74383;SDS011;62824;52.994;-3.936;2023-04-24T02:44:36;8.60;;;4.93;;
74383;SDS011;62824;52.994;-3.936;2023-04-24T02:47:02;9.02;;;4.38;;
74383;SDS011;62824;52.994;-3.936;2023-04-24T02:49:28;8.02;;;4.40;;
74383;SDS011;62824;52.994;-3.936;2023-04-24T02:51:54;8.85;;;4.22;;
74383;SDS011;62824;52.994;-3.936;2023-04-24T02:54:20;7.05;;;4.07;;
74383;SDS011;62824;52.994;-3.936;2023-04-24T02:56:45;7.80;;;5.00;;
74383;SDS011;62824;52.994;-3.936;2023-04-24T02:59:11;8.50;;;4.50;;
74383;SDS011;62824;52.994;-3.936;2023-04-24T03:01:37;8.63;;;4.15;;
74383;SDS011;62824;52.994;-3.936;2023-04-24T03:04:02;9.43;;;4.38;;
74383;SDS011;62824;52.994;-3.936;2023-04-24T03:06:28;8.98;;;4.20;;
74383;SDS011;62824;52.994;-3.936;2023-04-24T03:08:56;6.35;;;3.63;;
74383;SDS011;62824;52.994;-3.936;2023-04-24T03:11:22;8.60;;;4.10;;
74383;SDS011;62824;52.994;-3.936;2023-04-24T03:13:47;8.35;;;4.10;;
74383;SDS011;62824;52.994;-3.936;2023-04-24T03:16:13;6.10;;;3.75;;
74383;SDS011;62824;52.994;-3.936;2023-04-24T03:18:39;8.23;;;4.18;;
74383;SDS011;62824;52.994;-3.936;2023-04-24T03:21:05;7.28;;;3.75;;
74383;SDS011;62824;52.994;-3.936;2023-04-24T03:23:31;4.47;;;3.30;;
74383;SDS011;62824;52.994;-3.936;2023-04-24T03:25:56;6.72;;;3.72;;
74383;SDS011;62824;52.994;-3.936;2023-04-24T03:28:22;10.18;;;3.80;;
74383;SDS011;62824;52.994;-3.936;2023-04-24T03:30:48;5.80;;;3.88;;
74383;SDS011;62824;52.994;-3.936;2023-04-24T03:33:14;7.40;;;3.50;;
74383;SDS011;62824;52.994;-3.936;2023-04-24T03:35:39;9.93;;;3.70;;
74383;SDS011;62824;52.994;-3.936;2023-04-24T03:38:06;7.75;;;4.30;;
74383;SDS011;62824;52.994;-3.936;2023-04-24T03:40:32;7.97;;;3.90;;
74383;SDS011;62824;52.994;-3.936;2023-04-24T03:42:58;7.90;;;3.95;;
74383;SDS011;62824;52.994;-3.936;2023-04-24T03:45:24;7.10;;;4.22;;
74383;SDS011;62824;52.994;-3.936;2023-04-24T03:47:50;5.82;;;3.92;;
74383;SDS011;62824;52.994;-3.936;2023-04-24T03:50:15;6.20;;;4.00;;
74383;SDS011;62824;52.994;-3.936;2023-04-24T03:52:41;8.95;;;4.40;;
74383;SDS011;62824;52.994;-3.936;2023-04-24T03:55:07;11.90;;;4.53;;
74383;SDS011;62824;52.994;-3.936;2023-04-24T03:57:33;7.10;;;4.13;;
74383;SDS011;62824;52.994;-3.936;2023-04-24T03:59:59;5.82;;;3.78;;
74383;SDS011;62824;52.994;-3.936;2023-04-24T04:02:25;6.60;;;4.07;;
74383;SDS011;62824;52.994;-3.936;2023-04-24T04:04:50;6.47;;;3.33;;
74383;SDS011;62824;52.994;-3.936;2023-04-24T04:07:16;5.93;;;3.70;;
74383;SDS011;62824;52.994;-3.936;2023-04-24T04:09:42;8.20;;;3.85;;
74383;SDS011;62824;52.994;-3.936;2023-04-24T04:12:08;5.32;;;3.58;;
74383;SDS011;62824;52.994;-3.936;2023-04-24T04:14:33;6.43;;;3.38;;
74383;SDS011;62824;52.994;-3.936;2023-04-24T04:16:59;6.70;;;3.47;;
74383;SDS011;62824;52.994;-3.936;2023-04-24T04:19:25;6.07;;;3.55;;
74383;SDS011;62824;52.994;-3.936;2023-04-24T04:21:51;6.53;;;3.17;;
74383;SDS011;62824;52.994;-3.936;2023-04-24T04:24:18;5.55;;;3.10;;
74383;SDS011;62824;52.994;-3.936;2023-04-24T04:26:46;4.80;;;3.22;;
74383;SDS011;62824;52.994;-3.936;2023-04-24T04:29:12;7.80;;;3.15;;
74383;SDS011;62824;52.994;-3.936;2023-04-24T04:31:39;8.50;;;3.83;;
74383;SDS011;62824;52.994;-3.936;2023-04-24T04:34:04;5.60;;;3.50;;
74383;SDS011;62824;52.994;-3.936;2023-04-24T04:36:30;7.82;;;3.35;;
74383;SDS011;62824;52.994;-3.936;2023-04-24T04:38:56;6.53;;;3.70;;
74383;SDS011;62824;52.994;-3.936;2023-04-24T04:41:24;5.65;;;3.50;;
74383;SDS011;62824;52.994;-3.936;2023-04-24T04:43:50;8.55;;;4.03;;
74383;SDS011;62824;52.994;-3.936;2023-04-24T04:46:16;8.15;;;3.88;;
74383;SDS011;62824;52.994;-3.936;2023-04-24T04:48:41;7.57;;;3.75;;
74383;SDS011;62824;52.994;-3.936;2023-04-24T04:51:08;7.82;;;3.53;;
74383;SDS011;62824;52.994;-3.936;2023-04-24T04:53:33;5.13;;;3.05;;
74383;SDS011;62824;52.994;-3.936;2023-04-24T04:56:00;6.45;;;3.65;;
74383;SDS011;62824;52.994;-3.936;2023-04-24T04:58:26;6.07;;;3.13;;
74383;SDS011;62824;52.994;-3.936;2023-04-24T05:00:51;6.70;;;3.78;;
74383;SDS011;62824;52.994;-3.936;2023-04-24T05:03:17;5.22;;;3.15;;
74383;SDS011;62824;52.994;-3.936;2023-04-24T05:05:43;6.38;;;3.33;;
74383;SDS011;62824;52.994;-3.936;2023-04-24T05:08:09;6.30;;;2.92;;
74383;SDS011;62824;52.994;-3.936;2023-04-24T05:10:34;4.93;;;2.90;;
74383;SDS011;62824;52.994;-3.936;2023-04-24T05:13:02;6.18;;;2.88;;
74383;SDS011;62824;52.994;-3.936;2023-04-24T05:15:29;7.78;;;3.00;;
74383;SDS011;62824;52.994;-3.936;2023-04-24T05:17:55;6.55;;;2.97;;
74383;SDS011;62824;52.994;-3.936;2023-04-24T05:20:21;7.78;;;3.08;;
74383;SDS011;62824;52.994;-3.936;2023-04-24T05:22:46;5.40;;;3.05;;
74383;SDS011;62824;52.994;-3.936;2023-04-24T05:25:12;4.78;;;2.92;;
74383;SDS011;62824;52.994;-3.936;2023-04-24T05:27:38;6.28;;;2.85;;
74383;SDS011;62824;52.994;-3.936;2023-04-24T05:30:04;4.60;;;3.88;;
74383;SDS011;62824;52.994;-3.936;2023-04-24T05:32:31;8.07;;;2.75;;
74383;SDS011;62824;52.994;-3.936;2023-04-24T05:34:57;3.28;;;2.20;;
74383;SDS011;62824;52.994;-3.936;2023-04-24T05:37:22;3.53;;;2.30;;
74383;SDS011;62824;52.994;-3.936;2023-04-24T05:39:48;4.63;;;2.33;;
74383;SDS011;62824;52.994;-3.936;2023-04-24T05:42:14;5.95;;;2.60;;
74383;SDS011;62824;52.994;-3.936;2023-04-24T05:44:40;3.65;;;2.30;;
74383;SDS011;62824;52.994;-3.936;2023-04-24T05:47:05;4.07;;;2.00;;
74383;SDS011;62824;52.994;-3.936;2023-04-24T05:49:31;5.72;;;1.92;;
74383;SDS011;62824;52.994;-3.936;2023-04-24T05:51:57;3.47;;;1.92;;
74383;SDS011;62824;52.994;-3.936;2023-04-24T05:54:23;3.90;;;2.33;;
74383;SDS011;62824;52.994;-3.936;2023-04-24T05:56:49;4.88;;;2.65;;
74383;SDS011;62824;52.994;-3.936;2023-04-24T05:59:15;4.47;;;2.28;;
74383;SDS011;62824;52.994;-3.936;2023-04-24T06:01:41;6.60;;;2.67;;
74383;SDS011;62824;52.994;-3.936;2023-04-24T06:04:07;5.55;;;2.45;;
74383;SDS011;62824;52.994;-3.936;2023-04-24T06:06:32;5.85;;;2.45;;
74383;SDS011;62824;52.994;-3.936;2023-04-24T06:08:59;3.92;;;2.20;;
74383;SDS011;62824;52.994;-3.936;2023-04-24T06:11:27;5.68;;;2.65;;
74383;SDS011;62824;52.994;-3.936;2023-04-24T06:13:53;6.30;;;2.63;;
74383;SDS011;62824;52.994;-3.936;2023-04-24T06:16:18;6.95;;;2.55;;
74383;SDS011;62824;52.994;-3.936;2023-04-24T06:18:45;3.50;;;2.20;;
74383;SDS011;62824;52.994;-3.936;2023-04-24T06:21:12;3.85;;;2.20;;
74383;SDS011;62824;52.994;-3.936;2023-04-24T06:23:37;4.97;;;2.08;;
74383;SDS011;62824;52.994;-3.936;2023-04-24T06:26:03;4.78;;;2.00;;
74383;SDS011;62824;52.994;-3.936;2023-04-24T06:28:29;4.07;;;2.08;;
74383;SDS011;62824;52.994;-3.936;2023-04-24T06:30:55;3.10;;;1.90;;
74383;SDS011;62824;52.994;-3.936;2023-04-24T06:33:21;3.83;;;1.85;;
74383;SDS011;62824;52.994;-3.936;2023-04-24T06:35:46;4.35;;;1.83;;
74383;SDS011;62824;52.994;-3.936;2023-04-24T06:38:12;4.15;;;1.80;;
74383;SDS011;62824;52.994;-3.936;2023-04-24T06:40:38;4.13;;;1.85;;
74383;SDS011;62824;52.994;-3.936;2023-04-24T06:43:04;5.20;;;1.80;;
74383;SDS011;62824;52.994;-3.936;2023-04-24T06:45:31;5.07;;;1.98;;
74383;SDS011;62824;52.994;-3.936;2023-04-24T06:47:56;5.45;;;1.77;;
74383;SDS011;62824;52.994;-3.936;2023-04-24T06:50:22;5.35;;;2.03;;
74383;SDS011;62824;52.994;-3.936;2023-04-24T06:52:49;3.20;;;1.75;;
74383;SDS011;62824;52.994;-3.936;2023-04-24T06:55:15;3.95;;;1.80;;
74383;SDS011;62824;52.994;-3.936;2023-04-24T06:57:41;4.32;;;2.08;;
74383;SDS011;62824;52.994;-3.936;2023-04-24T07:00:09;3.50;;;1.98;;
74383;SDS011;62824;52.994;-3.936;2023-04-24T07:02:36;3.45;;;1.65;;
74383;SDS011;62824;52.994;-3.936;2023-04-24T07:05:02;3.45;;;1.83;;
74383;SDS011;62824;52.994;-3.936;2023-04-24T07:07:29;3.60;;;2.17;;
74383;SDS011;62824;52.994;-3.936;2023-04-24T07:09:56;6.22;;;2.10;;
74383;SDS011;62824;52.994;-3.936;2023-04-24T07:12:22;4.45;;;2.33;;
74383;SDS011;62824;52.994;-3.936;2023-04-24T07:14:48;4.70;;;2.40;;
74383;SDS011;62824;52.994;-3.936;2023-04-24T07:17:15;3.55;;;1.83;;
74383;SDS011;62824;52.994;-3.936;2023-04-24T07:19:41;5.00;;;2.33;;
74383;SDS011;62824;52.994;-3.936;2023-04-24T07:22:07;4.57;;;1.92;;
74383;SDS011;62824;52.994;-3.936;2023-04-24T07:24:33;6.75;;;1.77;;
74383;SDS011;62824;52.994;-3.936;2023-04-24T07:26:59;3.13;;;1.80;;
74383;SDS011;62824;52.994;-3.936;2023-04-24T07:29:26;2.63;;;1.85;;
74383;SDS011;62824;52.994;-3.936;2023-04-24T07:31:52;5.65;;;2.08;;
74383;SDS011;62824;52.994;-3.936;2023-04-24T07:34:19;4.40;;;2.42;;
74383;SDS011;62824;52.994;-3.936;2023-04-24T07:36:45;5.97;;;2.30;;
74383;SDS011;62824;52.994;-3.936;2023-04-24T07:39:11;4.82;;;2.22;;
74383;SDS011;62824;52.994;-3.936;2023-04-24T07:41:37;4.47;;;2.00;;
74383;SDS011;62824;52.994;-3.936;2023-04-24T07:44:03;3.20;;;2.03;;
74383;SDS011;62824;52.994;-3.936;2023-04-24T07:46:29;5.78;;;1.88;;
74383;SDS011;62824;52.994;-3.936;2023-04-24T07:48:55;4.05;;;1.90;;
74383;SDS011;62824;52.994;-3.936;2023-04-24T07:51:21;5.05;;;1.83;;
74383;SDS011;62824;52.994;-3.936;2023-04-24T07:53:47;4.90;;;2.15;;
74383;SDS011;62824;52.994;-3.936;2023-04-24T07:56:13;3.40;;;1.75;;
74383;SDS011;62824;52.994;-3.936;2023-04-24T07:58:38;6.07;;;2.85;;
74383;SDS011;62824;52.994;-3.936;2023-04-24T08:01:05;4.00;;;1.45;;
74383;SDS011;62824;52.994;-3.936;2023-04-24T08:03:30;3.72;;;1.75;;
74383;SDS011;62824;52.994;-3.936;2023-04-24T08:05:56;3.45;;;1.85;;
74383;SDS011;62824;52.994;-3.936;2023-04-24T08:08:22;3.58;;;1.90;;
74383;SDS011;62824;52.994;-3.936;2023-04-24T08:10:49;3.47;;;1.52;;
74383;SDS011;62824;52.994;-3.936;2023-04-24T08:13:15;6.20;;;1.60;;
74383;SDS011;62824;52.994;-3.936;2023-04-24T08:15:41;5.43;;;1.63;;
74383;SDS011;62824;52.994;-3.936;2023-04-24T08:18:06;4.88;;;1.42;;
74383;SDS011;62824;52.994;-3.936;2023-04-24T08:20:32;2.63;;;1.50;;
74383;SDS011;62824;52.994;-3.936;2023-04-24T08:22:59;4.47;;;2.00;;
74383;SDS011;62824;52.994;-3.936;2023-04-24T08:25:25;3.03;;;1.40;;
74383;SDS011;62824;52.994;-3.936;2023-04-24T08:27:51;3.00;;;1.52;;
74383;SDS011;62824;52.994;-3.936;2023-04-24T08:30:17;5.40;;;2.03;;
74383;SDS011;62824;52.994;-3.936;2023-04-24T08:32:43;4.28;;;1.70;;
74383;SDS011;62824;52.994;-3.936;2023-04-24T08:35:09;2.90;;;1.30;;
74383;SDS011;62824;52.994;-3.936;2023-04-24T08:37:35;2.40;;;1.15;;
74383;SDS011;62824;52.994;-3.936;2023-04-24T08:40:03;3.40;;;1.63;;
74383;SDS011;62824;52.994;-3.936;2023-04-24T08:42:44;3.83;;;1.52;;
74383;SDS011;62824;52.994;-3.936;2023-04-24T08:45:11;1.80;;;1.30;;
74383;SDS011;62824;52.994;-3.936;2023-04-24T08:47:38;3.58;;;1.48;;
74383;SDS011;62824;52.994;-3.936;2023-04-24T08:50:05;3.95;;;1.48;;
74383;SDS011;62824;52.994;-3.936;2023-04-24T08:52:32;6.97;;;2.17;;
74383;SDS011;62824;52.994;-3.936;2023-04-24T08:54:59;4.20;;;1.60;;
74383;SDS011;62824;52.994;-3.936;2023-04-24T08:57:26;2.50;;;1.20;;
74383;SDS011;62824;52.994;-3.936;2023-04-24T08:59:52;2.70;;;1.30;;
74383;SDS011;62824;52.994;-3.936;2023-04-24T09:02:19;2.47;;;1.30;;
74383;SDS011;62824;52.994;-3.936;2023-04-24T09:04:46;3.97;;;1.60;;
74383;SDS011;62824;52.994;-3.936;2023-04-24T09:07:14;4.80;;;1.67;;
74383;SDS011;62824;52.994;-3.936;2023-04-24T09:09:42;2.42;;;1.25;;
74383;SDS011;62824;52.994;-3.936;2023-04-24T09:12:08;4.60;;;1.30;;
74383;SDS011;62824;52.994;-3.936;2023-04-24T09:14:35;2.05;;;1.27;;
74383;SDS011;62824;52.994;-3.936;2023-04-24T09:17:04;5.15;;;1.35;;
74383;SDS011;62824;52.994;-3.936;2023-04-24T09:19:31;2.90;;;1.20;;
74383;SDS011;62824;52.994;-3.936;2023-04-24T09:21:57;3.70;;;1.55;;
74383;SDS011;62824;52.994;-3.936;2023-04-24T09:24:23;3.33;;;1.77;;
74383;SDS011;62824;52.994;-3.936;2023-04-24T09:26:55;4.53;;;1.55;;
74383;SDS011;62824;52.994;-3.936;2023-04-24T09:29:23;4.85;;;1.50;;
74383;SDS011;62824;52.994;-3.936;2023-04-24T09:31:50;6.88;;;1.63;;
74383;SDS011;62824;52.994;-3.936;2023-04-24T09:34:20;6.57;;;1.60;;
74383;SDS011;62824;52.994;-3.936;2023-04-24T09:36:48;5.07;;;1.92;;
74383;SDS011;62824;52.994;-3.936;2023-04-24T09:39:14;2.25;;;1.90;;
74383;SDS011;62824;52.994;-3.936;2023-04-24T09:41:51;3.88;;;1.90;;
74383;SDS011;62824;52.994;-3.936;2023-04-24T09:44:23;5.03;;;1.92;;
74383;SDS011;62824;52.994;-3.936;2023-04-24T09:46:52;2.95;;;2.20;;
74383;SDS011;62824;52.994;-3.936;2023-04-24T09:49:28;3.90;;;2.17;;
74383;SDS011;62824;52.994;-3.936;2023-04-24T09:52:02;4.05;;;2.08;;
74383;SDS011;62824;52.994;-3.936;2023-04-24T09:54:32;5.15;;;2.00;;
74383;SDS011;62824;52.994;-3.936;2023-04-24T09:56:58;4.82;;;2.28;;
74383;SDS011;62824;52.994;-3.936;2023-04-24T09:59:27;3.38;;;1.98;;
74383;SDS011;62824;52.994;-3.936;2023-04-24T10:01:53;6.57;;;2.97;;
74383;SDS011;62824;52.994;-3.936;2023-04-24T10:04:20;7.25;;;2.20;;
74383;SDS011;62824;52.994;-3.936;2023-04-24T10:06:46;4.97;;;2.13;;
74383;SDS011;62824;52.994;-3.936;2023-04-24T10:09:17;5.80;;;2.40;;
74383;SDS011;62824;52.994;-3.936;2023-04-24T10:11:44;4.25;;;2.08;;
74383;SDS011;62824;52.994;-3.936;2023-04-24T10:14:15;3.25;;;2.10;;
74383;SDS011;62824;52.994;-3.936;2023-04-24T10:16:43;5.93;;;2.50;;
74383;SDS011;62824;52.994;-3.936;2023-04-24T10:19:10;4.60;;;2.08;;
74383;SDS011;62824;52.994;-3.936;2023-04-24T10:21:38;8.85;;;3.05;;
74383;SDS011;62824;52.994;-3.936;2023-04-24T10:24:07;6.03;;;2.45;;
74383;SDS011;62824;52.994;-3.936;2023-04-24T10:26:34;6.35;;;2.38;;
74383;SDS011;62824;52.994;-3.936;2023-04-24T10:29:03;4.18;;;1.98;;
74383;SDS011;62824;52.994;-3.936;2023-04-24T10:31:34;7.38;;;2.35;;
74383;SDS011;62824;52.994;-3.936;2023-04-24T10:34:01;4.18;;;2.47;;
74383;SDS011;62824;52.994;-3.936;2023-04-24T10:36:28;6.72;;;2.63;;
74383;SDS011;62824;52.994;-3.936;2023-04-24T10:38:57;4.65;;;2.53;;
74383;SDS011;62824;52.994;-3.936;2023-04-24T10:41:26;3.15;;;2.03;;
74383;SDS011;62824;52.994;-3.936;2023-04-24T10:44:08;4.90;;;2.33;;
74383;SDS011;62824;52.994;-3.936;2023-04-24T10:46:35;5.00;;;2.25;;
74383;SDS011;62824;52.994;-3.936;2023-04-24T10:49:05;11.57;;;2.53;;
74383;SDS011;62824;52.994;-3.936;2023-04-24T10:54:28;5.53;;;2.25;;
74383;SDS011;62824;52.994;-3.936;2023-04-24T10:59:47;5.13;;;1.98;;
74383;SDS011;62824;52.994;-3.936;2023-04-24T11:02:14;5.53;;;2.50;;
74383;SDS011;62824;52.994;-3.936;2023-04-24T11:04:40;5.13;;;1.95;;
74383;SDS011;62824;52.994;-3.936;2023-04-24T11:07:15;4.05;;;1.80;;
74383;SDS011;62824;52.994;-3.936;2023-04-24T11:09:41;8.48;;;1.83;;
74383;SDS011;62824;52.994;-3.936;2023-04-24T11:12:09;5.43;;;2.00;;
74383;SDS011;62824;52.994;-3.936;2023-04-24T11:17:37;5.40;;;1.63;;
74383;SDS011;62824;52.994;-3.936;2023-04-24T11:20:08;4.13;;;1.65;;
74383;SDS011;62824;52.994;-3.936;2023-04-24T11:22:36;4.15;;;1.77;;
74383;SDS011;62824;52.994;-3.936;2023-04-24T11:25:05;5.15;;;1.85;;
74383;SDS011;62824;52.994;-3.936;2023-04-24T11:27:39;3.70;;;1.92;;
74383;SDS011;62824;52.994;-3.936;2023-04-24T11:30:07;5.40;;;1.70;;
74383;SDS011;62824;52.994;-3.936;2023-04-24T11:35:05;8.52;;;2.65;;
74383;SDS011;62824;52.994;-3.936;2023-04-24T11:37:38;8.43;;;2.50;;
74383;SDS011;62824;52.994;-3.936;2023-04-24T11:40:06;5.45;;;1.95;;
74383;SDS011;62824;52.994;-3.936;2023-04-24T11:42:40;4.53;;;1.63;;
74383;SDS011;62824;52.994;-3.936;2023-04-24T11:45:10;7.45;;;1.52;;
74383;SDS011;62824;52.994;-3.936;2023-04-24T11:47:38;7.03;;;1.63;;
74383;SDS011;62824;52.994;-3.936;2023-04-24T11:50:05;2.95;;;1.83;;
74383;SDS011;62824;52.994;-3.936;2023-04-24T11:52:41;3.38;;;1.35;;
74383;SDS011;62824;52.994;-3.936;2023-04-24T11:57:42;5.03;;;1.88;;
74383;SDS011;62824;52.994;-3.936;2023-04-24T12:00:15;4.88;;;1.70;;
74383;SDS011;62824;52.994;-3.936;2023-04-24T12:02:43;5.40;;;1.80;;
74383;SDS011;62824;52.994;-3.936;2023-04-24T12:05:18;3.45;;;2.10;;
74383;SDS011;62824;52.994;-3.936;2023-04-24T12:07:48;4.47;;;1.95;;
74383;SDS011;62824;52.994;-3.936;2023-04-24T12:10:19;3.55;;;1.75;;
74383;SDS011;62824;52.994;-3.936;2023-04-24T12:12:45;4.15;;;1.80;;
74383;SDS011;62824;52.994;-3.936;2023-04-24T12:15:11;3.60;;;1.73;;
74383;SDS011;62824;52.994;-3.936;2023-04-24T12:17:40;6.03;;;2.22;;
74383;SDS011;62824;52.994;-3.936;2023-04-24T12:20:07;5.28;;;1.95;;
74383;SDS011;62824;52.994;-3.936;2023-04-24T12:22:50;4.88;;;1.80;;
74383;SDS011;62824;52.994;-3.936;2023-04-24T12:25:18;7.00;;;1.98;;
74383;SDS011;62824;52.994;-3.936;2023-04-24T12:27:45;6.03;;;2.00;;
74383;SDS011;62824;52.994;-3.936;2023-04-24T12:30:16;5.07;;;2.00;;
74383;SDS011;62824;52.994;-3.936;2023-04-24T12:32:46;4.72;;;1.77;;
74383;SDS011;62824;52.994;-3.936;2023-04-24T12:35:18;5.00;;;1.83;;
74383;SDS011;62824;52.994;-3.936;2023-04-24T12:37:45;3.97;;;1.88;;
74383;SDS011;62824;52.994;-3.936;2023-04-24T12:40:12;5.38;;;2.05;;
74383;SDS011;62824;52.994;-3.936;2023-04-24T12:42:43;6.07;;;2.00;;
74383;SDS011;62824;52.994;-3.936;2023-04-24T12:45:09;5.07;;;1.95;;
74383;SDS011;62824;52.994;-3.936;2023-04-24T12:47:37;3.22;;;1.60;;
74383;SDS011;62824;52.994;-3.936;2023-04-24T12:50:04;5.80;;;2.90;;
74383;SDS011;62824;52.994;-3.936;2023-04-24T12:52:31;4.30;;;1.95;;
74383;SDS011;62824;52.994;-3.936;2023-04-24T12:54:57;3.40;;;1.70;;
74383;SDS011;62824;52.994;-3.936;2023-04-24T12:57:24;5.68;;;1.80;;
74383;SDS011;62824;52.994;-3.936;2023-04-24T12:59:55;4.25;;;1.63;;
74383;SDS011;62824;52.994;-3.936;2023-04-24T13:02:22;4.10;;;1.88;;
74383;SDS011;62824;52.994;-3.936;2023-04-24T13:04:49;3.03;;;1.48;;
74383;SDS011;62824;52.994;-3.936;2023-04-24T13:07:15;3.67;;;2.00;;
74383;SDS011;62824;52.994;-3.936;2023-04-24T13:09:42;3.97;;;1.90;;
74383;SDS011;62824;52.994;-3.936;2023-04-24T13:12:09;3.83;;;1.98;;
74383;SDS011;62824;52.994;-3.936;2023-04-24T13:14:35;4.40;;;2.10;;
74383;SDS011;62824;52.994;-3.936;2023-04-24T13:17:01;4.22;;;2.00;;
74383;SDS011;62824;52.994;-3.936;2023-04-24T13:19:28;4.97;;;2.10;;
74383;SDS011;62824;52.994;-3.936;2023-04-24T13:21:54;5.32;;;1.52;;
74383;SDS011;62824;52.994;-3.936;2023-04-24T13:24:24;3.47;;;1.58;;
74383;SDS011;62824;52.994;-3.936;2023-04-24T13:26:51;3.58;;;1.80;;
74383;SDS011;62824;52.994;-3.936;2023-04-24T13:29:17;5.57;;;1.58;;
74383;SDS011;62824;52.994;-3.936;2023-04-24T13:31:43;2.67;;;1.50;;
74383;SDS011;62824;52.994;-3.936;2023-04-24T13:34:09;6.20;;;1.75;;
74383;SDS011;62824;52.994;-3.936;2023-04-24T13:36:35;5.00;;;2.05;;
74383;SDS011;62824;52.994;-3.936;2023-04-24T13:39:02;5.30;;;2.05;;
74383;SDS011;62824;52.994;-3.936;2023-04-24T13:41:29;3.35;;;1.70;;
74383;SDS011;62824;52.994;-3.936;2023-04-24T13:43:55;3.08;;;1.60;;
74383;SDS011;62824;52.994;-3.936;2023-04-24T13:46:21;3.15;;;1.50;;
74383;SDS011;62824;52.994;-3.936;2023-04-24T13:48:47;3.65;;;2.00;;
74383;SDS011;62824;52.994;-3.936;2023-04-24T13:51:13;3.20;;;1.58;;
74383;SDS011;62824;52.994;-3.936;2023-04-24T13:53:39;5.25;;;1.73;;
74383;SDS011;62824;52.994;-3.936;2023-04-24T13:56:05;3.03;;;1.70;;
74383;SDS011;62824;52.994;-3.936;2023-04-24T13:58:31;6.65;;;2.33;;
74383;SDS011;62824;52.994;-3.936;2023-04-24T14:01:01;6.03;;;2.22;;
74383;SDS011;62824;52.994;-3.936;2023-04-24T14:03:28;5.40;;;2.13;;
74383;SDS011;62824;52.994;-3.936;2023-04-24T14:05:54;7.20;;;1.92;;
74383;SDS011;62824;52.994;-3.936;2023-04-24T14:08:20;3.38;;;2.20;;
74383;SDS011;62824;52.994;-3.936;2023-04-24T14:10:45;4.15;;;2.13;;
74383;SDS011;62824;52.994;-3.936;2023-04-24T14:13:11;5.65;;;3.03;;
74383;SDS011;62824;52.994;-3.936;2023-04-24T14:15:37;4.20;;;2.20;;
74383;SDS011;62824;52.994;-3.936;2023-04-24T14:18:03;5.32;;;1.92;;
74383;SDS011;62824;52.994;-3.936;2023-04-24T14:20:29;3.83;;;1.77;;
74383;SDS011;62824;52.994;-3.936;2023-04-24T14:22:55;4.15;;;2.13;;
74383;SDS011;62824;52.994;-3.936;2023-04-24T14:25:24;4.20;;;2.22;;
74383;SDS011;62824;52.994;-3.936;2023-04-24T14:27:50;7.15;;;2.33;;
74383;SDS011;62824;52.994;-3.936;2023-04-24T14:30:16;4.95;;;2.53;;
74383;SDS011;62824;52.994;-3.936;2023-04-24T14:32:43;6.45;;;2.47;;
74383;SDS011;62824;52.994;-3.936;2023-04-24T14:35:09;4.47;;;1.95;;
74383;SDS011;62824;52.994;-3.936;2023-04-24T14:37:35;8.80;;;2.85;;
74383;SDS011;62824;52.994;-3.936;2023-04-24T14:40:02;4.28;;;2.03;;
74383;SDS011;62824;52.994;-3.936;2023-04-24T14:42:30;6.03;;;1.90;;
74383;SDS011;62824;52.994;-3.936;2023-04-24T14:44:56;7.47;;;2.83;;